Time;durP1;ratioP1;P1;durP2;ratioP2;P2;SDS_P1;SDS_P2;PMS_P1;PMS_P2;Temp;Humidity;BMP_temperature;BMP_pressure;BME280_temperature;BME280_humidity;BME280_pressure;Samples;Min_cycle;Max_cycle;Signal;HPM_P1;HPM_P2
2021/12/02 00:01:43;;;;;;;2.47;0.70;;;;;;;;;;5038331;28;20555;-79
2021/12/02 00:04:09;;;;;;;1.25;0.60;;;;;;;;;;5045819;28;20104;-79
2021/12/02 00:06:36;;;;;;;2.58;0.80;;;;;;;;;;5067387;28;20012;-79
2021/12/02 00:09:03;;;;;;;2.08;0.68;;;;;;;;;;5073339;28;20021;-80
2021/12/02 00:11:30;;;;;;;3.05;0.60;;;;;;;;;;5056982;28;20013;-79
2021/12/02 00:14:02;;;;;;;1.50;0.50;;;;;;;;;;5056979;28;20024;-80
2021/12/02 00:21:50;;;;;;;1.85;0.60;;;;;;;;;;5075092;28;20040;-81
2021/12/02 00:24:19;;;;;;;1.90;0.70;;;;;;;;;;5047141;28;20498;-81
2021/12/02 00:26:45;;;;;;;1.65;0.50;;;;;;;;;;5070854;28;20036;-80
2021/12/02 00:29:11;;;;;;;1.27;0.60;;;;;;;;;;5056434;28;20078;-79
2021/12/02 00:31:38;;;;;;;1.25;0.52;;;;;;;;;;5045643;28;20041;-79
2021/12/02 00:34:08;;;;;;;1.60;0.70;;;;;;;;;;5055270;28;20116;-79
2021/12/02 00:36:36;;;;;;;1.75;0.68;;;;;;;;;;5057012;28;20478;-80
2021/12/02 00:39:13;;;;;;;1.80;0.60;;;;;;;;;;5038230;28;20029;-80
2021/12/02 00:41:39;;;;;;;1.67;0.70;;;;;;;;;;5037776;28;20579;-79
2021/12/02 00:44:05;;;;;;;2.08;0.70;;;;;;;;;;5063836;28;20027;-80
2021/12/02 00:46:32;;;;;;;1.85;0.57;;;;;;;;;;5052280;28;20044;-80
2021/12/02 00:49:02;;;;;;;1.58;0.50;;;;;;;;;;5063467;28;20021;-80
2021/12/02 00:51:29;;;;;;;2.30;1.00;;;;;;;;;;5055804;28;20017;-80
2021/12/02 00:53:55;;;;;;;1.13;0.52;;;;;;;;;;5044032;28;20046;-80
2021/12/02 00:56:25;;;;;;;2.20;0.70;;;;;;;;;;5063023;28;20106;-80
2021/12/02 00:58:52;;;;;;;2.58;0.80;;;;;;;;;;5054402;28;20228;-79
2021/12/02 01:01:19;;;;;;;1.85;0.60;;;;;;;;;;5070473;28;20028;-79
2021/12/02 01:03:45;;;;;;;1.10;0.52;;;;;;;;;;5047801;28;20029;-79
2021/12/02 01:06:11;;;;;;;2.05;0.60;;;;;;;;;;5052744;28;20043;-80
2021/12/02 01:08:39;;;;;;;1.17;0.50;;;;;;;;;;5057265;28;20020;-79
2021/12/02 01:11:06;;;;;;;1.35;0.55;;;;;;;;;;5074118;28;20070;-79
2021/12/02 01:13:32;;;;;;;1.75;0.50;;;;;;;;;;5048532;28;20117;-79
2021/12/02 01:15:58;;;;;;;1.80;0.60;;;;;;;;;;5062476;28;20036;-79
2021/12/02 01:18:24;;;;;;;1.98;0.63;;;;;;;;;;5060969;28;20025;-80
2021/12/02 01:20:51;;;;;;;2.25;0.70;;;;;;;;;;5054270;28;20160;-79
2021/12/02 01:23:18;;;;;;;1.60;0.70;;;;;;;;;;5038966;28;20024;-80
2021/12/02 01:25:55;;;;;;;1.70;0.60;;;;;;;;;;5055672;28;20029;-79
2021/12/02 01:28:23;;;;;;;1.10;0.55;;;;;;;;;;5048941;28;20052;-79
2021/12/02 01:30:50;;;;;;;1.98;0.60;;;;;;;;;;5056312;28;20029;-79
2021/12/02 01:33:19;;;;;;;1.65;0.70;;;;;;;;;;5049787;28;20037;-80
2021/12/02 01:35:48;;;;;;;2.17;0.50;;;;;;;;;;5058095;28;20080;-79
2021/12/02 01:38:15;;;;;;;1.65;0.60;;;;;;;;;;5074698;28;20055;-80
2021/12/02 01:40:42;;;;;;;1.67;0.63;;;;;;;;;;5074473;28;20017;-79
2021/12/02 01:43:10;;;;;;;1.73;0.70;;;;;;;;;;5055528;28;20052;-79
2021/12/02 01:45:40;;;;;;;1.27;0.50;;;;;;;;;;5069717;28;20032;-79
2021/12/02 01:48:09;;;;;;;2.05;0.60;;;;;;;;;;5048108;28;20096;-79
2021/12/02 01:50:38;;;;;;;1.70;0.80;;;;;;;;;;5037393;28;20115;-78
2021/12/02 01:53:05;;;;;;;1.77;0.63;;;;;;;;;;5053942;28;20451;-79
2021/12/02 01:55:31;;;;;;;1.55;0.63;;;;;;;;;;5047386;28;20025;-80
2021/12/02 01:58:01;;;;;;;1.17;0.55;;;;;;;;;;5036595;28;20051;-79
2021/12/02 02:00:32;;;;;;;1.75;0.60;;;;;;;;;;5056915;28;20106;-80
2021/12/02 02:02:59;;;;;;;1.80;0.50;;;;;;;;;;5060391;28;20021;-80
2021/12/02 02:05:25;;;;;;;2.15;0.60;;;;;;;;;;5049870;28;20056;-79
2021/12/02 02:08:09;;;;;;;1.80;0.70;;;;;;;;;;5055059;28;20021;-80
2021/12/02 02:10:37;;;;;;;1.73;0.60;;;;;;;;;;5053608;28;20028;-79
2021/12/02 02:13:08;;;;;;;2.47;0.80;;;;;;;;;;5056014;28;20040;-80
2021/12/02 02:15:35;;;;;;;1.75;0.60;;;;;;;;;;5078156;28;20021;-79
2021/12/02 02:18:09;;;;;;;1.33;0.60;;;;;;;;;;5054725;28;20028;-79
2021/12/02 02:20:38;;;;;;;2.25;0.85;;;;;;;;;;5045335;28;20029;-79
2021/12/02 02:23:07;;;;;;;2.15;0.60;;;;;;;;;;5042783;28;20027;-79
2021/12/02 02:25:33;;;;;;;1.75;0.60;;;;;;;;;;5039408;28;20032;-79
2021/12/02 02:27:59;;;;;;;1.25;0.50;;;;;;;;;;5057412;28;20025;-80
2021/12/02 02:30:25;;;;;;;1.48;0.60;;;;;;;;;;5058002;28;20032;-79
2021/12/02 02:32:51;;;;;;;2.53;0.68;;;;;;;;;;5047980;28;20112;-79
2021/12/02 02:35:17;;;;;;;2.05;0.63;;;;;;;;;;5074672;28;20033;-79
2021/12/02 02:37:43;;;;;;;1.80;0.63;;;;;;;;;;5072818;28;20032;-79
2021/12/02 02:40:11;;;;;;;1.63;0.60;;;;;;;;;;5067467;28;20028;-79
2021/12/02 02:42:38;;;;;;;1.40;0.60;;;;;;;;;;5077502;28;20481;-79
2021/12/02 02:45:04;;;;;;;1.80;0.60;;;;;;;;;;5059771;28;20031;-79
2021/12/02 02:47:30;;;;;;;1.80;0.50;;;;;;;;;;5060509;28;20079;-79
2021/12/02 02:49:56;;;;;;;1.60;0.60;;;;;;;;;;5069225;28;20081;-79
2021/12/02 02:52:23;;;;;;;2.10;0.85;;;;;;;;;;5065249;28;20028;-79
2021/12/02 02:54:50;;;;;;;1.70;0.60;;;;;;;;;;5062476;28;20021;-79
2021/12/02 02:57:18;;;;;;;1.80;0.70;;;;;;;;;;5038937;28;20396;-79
2021/12/02 03:03:04;;;;;;;1.50;0.50;;;;;;;;;;4976536;28;20030;-80
2021/12/02 03:06:02;;;;;;;2.70;0.80;;;;;;;;;;4975518;28;20031;-79
2021/12/02 03:08:38;;;;;;;1.65;0.70;;;;;;;;;;4950444;29;20039;-80
2021/12/02 03:11:05;;;;;;;1.38;0.52;;;;;;;;;;4941402;29;20509;-79
2021/12/02 03:13:45;;;;;;;6.47;1.25;;;;;;;;;;4967896;28;20651;-79
2021/12/02 03:18:56;;;;;;;1.80;1.08;;;;;;;;;;4975677;28;20044;-79
2021/12/02 03:21:23;;;;;;;1.77;0.60;;;;;;;;;;4957533;28;20039;-79
2021/12/02 03:23:53;;;;;;;1.88;0.70;;;;;;;;;;4956388;28;20106;-79
2021/12/02 03:26:20;;;;;;;1.27;0.68;;;;;;;;;;4968179;28;20616;-78
2021/12/02 03:28:51;;;;;;;2.38;0.70;;;;;;;;;;4957192;28;20038;-79
2021/12/02 03:31:18;;;;;;;1.17;0.50;;;;;;;;;;4953797;28;20067;-80
2021/12/02 03:33:44;;;;;;;1.83;0.65;;;;;;;;;;5003842;28;20057;-80
2021/12/02 03:36:10;;;;;;;1.35;0.50;;;;;;;;;;5056455;28;20091;-79
2021/12/02 03:38:37;;;;;;;1.42;0.60;;;;;;;;;;5066894;28;20028;-79
2021/12/02 03:41:04;;;;;;;2.45;0.70;;;;;;;;;;5071594;28;20029;-80
2021/12/02 03:43:41;;;;;;;5.03;1.25;;;;;;;;;;5067249;28;20021;-79
2021/12/02 03:46:08;;;;;;;1.63;0.60;;;;;;;;;;5055204;28;20036;-80
2021/12/02 03:48:36;;;;;;;1.45;0.68;;;;;;;;;;5045154;28;20052;-79
2021/12/02 03:51:02;;;;;;;1.50;0.50;;;;;;;;;;5060662;28;20029;-79
2021/12/02 03:53:28;;;;;;;1.67;0.60;;;;;;;;;;5058990;28;20033;-79
2021/12/02 03:55:54;;;;;;;1.75;0.55;;;;;;;;;;5040979;28;20041;-79
2021/12/02 03:58:20;;;;;;;1.42;0.60;;;;;;;;;;5063760;28;20719;-80
2021/12/02 04:00:47;;;;;;;2.05;0.70;;;;;;;;;;5062707;28;20036;-79
2021/12/02 04:03:13;;;;;;;1.42;0.55;;;;;;;;;;5047528;28;20063;-78
2021/12/02 04:05:39;;;;;;;2.90;0.60;;;;;;;;;;5057195;28;20052;-79
2021/12/02 04:08:06;;;;;;;1.48;0.50;;;;;;;;;;5051057;28;20032;-79
2021/12/02 04:10:33;;;;;;;1.83;0.70;;;;;;;;;;5058040;28;20135;-79
2021/12/02 04:15:49;;;;;;;1.90;0.60;;;;;;;;;;5076016;28;20032;-80
2021/12/02 04:18:15;;;;;;;1.23;0.47;;;;;;;;;;5071020;28;20086;-79
2021/12/02 04:20:41;;;;;;;3.50;0.85;;;;;;;;;;5061556;28;20526;-79
2021/12/02 04:23:07;;;;;;;1.67;0.57;;;;;;;;;;5048049;28;20033;-78
2021/12/02 04:25:33;;;;;;;1.50;0.60;;;;;;;;;;5057658;28;20115;-79
2021/12/02 04:27:59;;;;;;;4.68;1.40;;;;;;;;;;5075401;28;20079;-79
2021/12/02 04:30:26;;;;;;;1.33;0.57;;;;;;;;;;5042772;28;20059;-79
2021/12/02 04:32:53;;;;;;;2.72;0.60;;;;;;;;;;5032706;28;20031;-79
2021/12/02 04:35:19;;;;;;;1.98;0.80;;;;;;;;;;5036984;28;20576;-79
2021/12/02 04:37:48;;;;;;;1.77;0.52;;;;;;;;;;5036556;28;20029;-79
2021/12/02 04:40:18;;;;;;;3.85;0.80;;;;;;;;;;5036719;28;20402;-79
2021/12/02 04:42:44;;;;;;;1.52;0.50;;;;;;;;;;5074662;28;20016;-79
2021/12/02 04:45:11;;;;;;;2.30;0.68;;;;;;;;;;5055635;28;20104;-80
2021/12/02 04:47:37;;;;;;;1.10;0.45;;;;;;;;;;5063334;28;20052;-79
2021/12/02 04:50:04;;;;;;;3.55;2.40;;;;;;;;;;5048034;28;20090;-79
2021/12/02 04:52:30;;;;;;;1.80;0.60;;;;;;;;;;5052533;28;20036;-79
2021/12/02 04:54:56;;;;;;;1.73;0.60;;;;;;;;;;5069887;28;20105;-79
2021/12/02 04:57:22;;;;;;;1.05;0.40;;;;;;;;;;5054749;28;20462;-79
2021/12/02 04:59:48;;;;;;;1.42;0.50;;;;;;;;;;5039961;28;20024;-79
2021/12/02 05:02:14;;;;;;;3.47;0.63;;;;;;;;;;5055601;28;20537;-79
2021/12/02 05:04:40;;;;;;;2.90;0.70;;;;;;;;;;5046902;28;20032;-79
2021/12/02 05:07:06;;;;;;;4.13;0.70;;;;;;;;;;5070162;28;20095;-78
2021/12/02 05:09:32;;;;;;;2.35;0.90;;;;;;;;;;5058071;28;20071;-77
2021/12/02 05:11:58;;;;;;;12.52;1.80;;;;;;;;;;5054519;28;20055;-78
2021/12/02 05:14:24;;;;;;;29.23;2.95;;;;;;;;;;5055873;28;20040;-79
2021/12/02 05:16:50;;;;;;;1.20;0.50;;;;;;;;;;5066310;28;20378;-79
2021/12/02 05:19:16;;;;;;;7.53;1.52;;;;;;;;;;5038613;28;20390;-79
2021/12/02 05:21:42;;;;;;;4.53;0.73;;;;;;;;;;5039420;28;20032;-80
2021/12/02 05:24:08;;;;;;;1.85;0.70;;;;;;;;;;5058543;28;20081;-80
2021/12/02 05:26:35;;;;;;;3.92;0.93;;;;;;;;;;5048042;28;20029;-80
2021/12/02 05:29:01;;;;;;;1.50;0.50;;;;;;;;;;5045190;28;20119;-80
2021/12/02 05:31:27;;;;;;;1.90;0.57;;;;;;;;;;5042643;28;20079;-80
2021/12/02 05:33:54;;;;;;;2.17;0.52;;;;;;;;;;5041500;28;20037;-79
2021/12/02 05:36:20;;;;;;;1.80;0.68;;;;;;;;;;5039821;28;20029;-81
2021/12/02 05:38:46;;;;;;;2.60;0.50;;;;;;;;;;5036598;28;20335;-80
2021/12/02 05:41:16;;;;;;;4.50;0.82;;;;;;;;;;5039182;28;20066;-80
2021/12/02 05:43:42;;;;;;;4.25;1.20;;;;;;;;;;5036092;28;20048;-79
2021/12/02 05:46:08;;;;;;;1.45;0.50;;;;;;;;;;5038626;28;20036;-79
2021/12/02 05:48:34;;;;;;;1.92;0.50;;;;;;;;;;5049605;28;20043;-80
2021/12/02 05:51:00;;;;;;;5.78;0.90;;;;;;;;;;5054117;28;20037;-79
2021/12/02 05:53:26;;;;;;;5.18;0.70;;;;;;;;;;5057544;28;20090;-79
2021/12/02 05:55:52;;;;;;;2.70;0.70;;;;;;;;;;5056097;28;20021;-79
2021/12/02 05:58:18;;;;;;;7.15;0.95;;;;;;;;;;5045043;28;20025;-77
2021/12/02 06:00:45;;;;;;;3.70;0.77;;;;;;;;;;5070823;28;20052;-80
2021/12/02 06:03:11;;;;;;;1.95;0.80;;;;;;;;;;5065510;28;20021;-78
2021/12/02 06:05:37;;;;;;;2.10;0.63;;;;;;;;;;5056837;28;20207;-78
2021/12/02 06:08:04;;;;;;;12.32;2.00;;;;;;;;;;5042383;28;20043;-78
2021/12/02 06:10:31;;;;;;;9.52;1.67;;;;;;;;;;5060723;28;20025;-78
2021/12/02 06:12:57;;;;;;;1.85;0.60;;;;;;;;;;5068037;28;20040;-79
2021/12/02 06:15:23;;;;;;;2.47;0.80;;;;;;;;;;5058558;28;20049;-79
2021/12/02 06:17:49;;;;;;;3.17;0.80;;;;;;;;;;5058296;28;20419;-78
2021/12/02 06:20:20;;;;;;;2.80;0.77;;;;;;;;;;5058045;28;20028;-79
2021/12/02 06:22:46;;;;;;;2.13;0.60;;;;;;;;;;5058241;28;20022;-79
2021/12/02 06:27:40;;;;;;;3.38;0.90;;;;;;;;;;5057839;28;20238;-79
2021/12/02 06:30:07;;;;;;;2.08;0.98;;;;;;;;;;5056270;28;20067;-79
2021/12/02 06:32:33;;;;;;;3.00;0.73;;;;;;;;;;5070424;28;20107;-79
2021/12/02 06:34:59;;;;;;;7.53;1.17;;;;;;;;;;5067066;28;20064;-78
2021/12/02 06:37:26;;;;;;;2.53;0.95;;;;;;;;;;5056185;28;20506;-78
2021/12/02 06:39:52;;;;;;;3.00;0.90;;;;;;;;;;5056203;28;20044;-79
2021/12/02 06:42:18;;;;;;;6.53;1.27;;;;;;;;;;5055765;28;20032;-78
2021/12/02 06:44:44;;;;;;;11.13;2.38;;;;;;;;;;5057264;28;20029;-79
2021/12/02 06:47:11;;;;;;;10.85;1.90;;;;;;;;;;5054258;28;20156;-79
2021/12/02 06:49:39;;;;;;;3.55;0.82;;;;;;;;;;5054671;28;20036;-79
2021/12/02 06:52:11;;;;;;;3.67;1.00;;;;;;;;;;5057630;28;20028;-79
2021/12/02 06:54:37;;;;;;;4.40;1.10;;;;;;;;;;5057482;28;20021;-80
2021/12/02 06:57:03;;;;;;;7.15;1.20;;;;;;;;;;5054639;28;20028;-79
2021/12/02 06:59:29;;;;;;;2.70;0.70;;;;;;;;;;5058733;28;20334;-79
2021/12/02 07:01:56;;;;;;;2.28;0.70;;;;;;;;;;5076910;28;20388;-79
2021/12/02 07:04:22;;;;;;;3.45;0.85;;;;;;;;;;5076537;28;20024;-79
2021/12/02 07:06:48;;;;;;;2.22;0.77;;;;;;;;;;5076394;28;20038;-78
2021/12/02 07:09:14;;;;;;;2.05;0.80;;;;;;;;;;5058212;28;20394;-79
2021/12/02 07:11:41;;;;;;;5.05;1.48;;;;;;;;;;5061164;28;20016;-79
2021/12/02 07:14:11;;;;;;;2.33;0.88;;;;;;;;;;5076549;28;20013;-79
2021/12/02 07:16:38;;;;;;;4.70;1.08;;;;;;;;;;5076899;28;20479;-79
2021/12/02 07:19:05;;;;;;;4.00;1.05;;;;;;;;;;5059142;28;20029;-79
2021/12/02 07:21:32;;;;;;;3.65;1.13;;;;;;;;;;5076799;28;20020;-79
2021/12/02 07:23:58;;;;;;;3.35;1.45;;;;;;;;;;5076782;28;20448;-78
2021/12/02 07:26:24;;;;;;;4.10;1.13;;;;;;;;;;5058335;28;20036;-79
2021/12/02 07:28:50;;;;;;;4.97;1.40;;;;;;;;;;5057916;28;20017;-77
2021/12/02 07:31:16;;;;;;;3.53;0.98;;;;;;;;;;5076351;28;20485;-79
2021/12/02 07:33:47;;;;;;;4.32;0.98;;;;;;;;;;5076670;28;20401;-78
2021/12/02 07:36:14;;;;;;;5.15;2.00;;;;;;;;;;5072551;28;20028;-78
2021/12/02 07:38:40;;;;;;;5.68;2.08;;;;;;;;;;5075772;28;20021;-78
2021/12/02 07:41:06;;;;;;;4.32;1.80;;;;;;;;;;5058794;28;20082;-78
2021/12/02 07:43:33;;;;;;;3.33;0.90;;;;;;;;;;5057798;28;20476;-79
2021/12/02 07:46:00;;;;;;;7.35;2.25;;;;;;;;;;5057861;28;20040;-78
2021/12/02 07:48:27;;;;;;;3.47;1.10;;;;;;;;;;5076298;28;20080;-78
2021/12/02 07:50:56;;;;;;;8.68;2.80;;;;;;;;;;5075674;28;20028;-79
2021/12/02 07:53:24;;;;;;;3.22;1.10;;;;;;;;;;5058563;28;20474;-79
2021/12/02 07:55:53;;;;;;;3.08;1.00;;;;;;;;;;5075694;28;20055;-79
2021/12/02 07:58:20;;;;;;;1.95;0.80;;;;;;;;;;5075551;28;20060;-79
2021/12/02 08:00:47;;;;;;;3.13;1.08;;;;;;;;;;5089124;28;20425;-78
2021/12/02 08:03:13;;;;;;;4.25;1.20;;;;;;;;;;5077498;28;20017;-79
2021/12/02 08:05:39;;;;;;;3.78;1.48;;;;;;;;;;5084935;28;20062;-78
2021/12/02 08:08:05;;;;;;;3.08;1.00;;;;;;;;;;5054623;28;20098;-78
2021/12/02 08:10:32;;;;;;;2.67;1.00;;;;;;;;;;5072959;28;20032;-78
2021/12/02 08:13:00;;;;;;;3.83;1.23;;;;;;;;;;5072832;28;20028;-78
2021/12/02 08:15:28;;;;;;;7.05;1.50;;;;;;;;;;5054469;28;20112;-78
2021/12/02 08:17:54;;;;;;;4.15;1.20;;;;;;;;;;5054909;28;20108;-78
2021/12/02 08:20:21;;;;;;;3.20;1.10;;;;;;;;;;5072604;28;20017;-78
2021/12/02 08:22:47;;;;;;;7.22;1.58;;;;;;;;;;5072698;28;20056;-78
2021/12/02 08:25:14;;;;;;;5.47;1.20;;;;;;;;;;5054254;28;20078;-78
2021/12/02 08:27:40;;;;;;;4.68;1.63;;;;;;;;;;5054884;28;20564;-78
2021/12/02 08:30:08;;;;;;;7.32;2.42;;;;;;;;;;5055810;28;20098;-77
2021/12/02 08:32:37;;;;;;;8.30;1.52;;;;;;;;;;5072672;28;20039;-78
2021/12/02 08:35:03;;;;;;;4.93;1.50;;;;;;;;;;5073267;28;20348;-78
2021/12/02 08:37:32;;;;;;;2.53;0.98;;;;;;;;;;5073896;28;20031;-78
2021/12/02 08:40:00;;;;;;;3.03;1.25;;;;;;;;;;5073168;28;20024;-78
2021/12/02 08:42:27;;;;;;;8.25;2.55;;;;;;;;;;5071815;28;20058;-78
2021/12/02 08:44:54;;;;;;;5.15;1.10;;;;;;;;;;5081372;28;20024;-78
2021/12/02 08:47:22;;;;;;;3.83;1.15;;;;;;;;;;5073783;28;20135;-78
2021/12/02 08:49:48;;;;;;;6.88;2.08;;;;;;;;;;5087083;28;20021;-78
2021/12/02 08:52:14;;;;;;;3.35;1.00;;;;;;;;;;5056457;28;20024;-79
2021/12/02 08:54:40;;;;;;;3.72;1.30;;;;;;;;;;5066688;28;20035;-78
2021/12/02 08:57:34;;;;;;;9.55;4.18;;;;;;;;;;5130700;27;20880;-78
2021/12/02 09:00:00;;;;;;;2.38;0.90;;;;;;;;;;5107469;28;20099;-78
2021/12/02 09:02:26;;;;;;;3.80;1.10;;;;;;;;;;5090110;28;20023;-78
2021/12/02 09:04:53;;;;;;;4.05;1.27;;;;;;;;;;5101463;28;20031;-78
2021/12/02 09:07:19;;;;;;;4.57;1.27;;;;;;;;;;5108787;28;20038;-78
2021/12/02 09:09:45;;;;;;;13.02;2.60;;;;;;;;;;5102621;28;20025;-78
2021/12/02 09:12:11;;;;;;;4.00;1.30;;;;;;;;;;5103507;28;20110;-78
2021/12/02 09:14:37;;;;;;;7.10;2.35;;;;;;;;;;5104379;28;20024;-78
2021/12/02 09:17:04;;;;;;;10.35;2.60;;;;;;;;;;5094067;28;20047;-79
2021/12/02 09:19:30;;;;;;;2.92;1.20;;;;;;;;;;5095826;28;20020;-78
2021/12/02 09:21:56;;;;;;;2.72;1.10;;;;;;;;;;5097555;28;20020;-79
2021/12/02 09:24:22;;;;;;;5.30;1.40;;;;;;;;;;5096644;28;20020;-78
2021/12/02 09:26:50;;;;;;;3.78;1.52;;;;;;;;;;5098849;28;20065;-79
2021/12/02 09:29:17;;;;;;;4.47;1.20;;;;;;;;;;5095230;28;20119;-78
2021/12/02 09:31:43;;;;;;;3.83;1.20;;;;;;;;;;5098958;28;20032;-78
2021/12/02 09:34:09;;;;;;;2.45;1.00;;;;;;;;;;5098670;28;20246;-78
2021/12/02 09:36:36;;;;;;;4.45;1.20;;;;;;;;;;5090246;28;20028;-78
2021/12/02 09:39:04;;;;;;;3.35;1.00;;;;;;;;;;5108830;28;20103;-78
2021/12/02 09:41:30;;;;;;;7.72;1.48;;;;;;;;;;5106794;28;20027;-78
2021/12/02 09:43:56;;;;;;;4.22;1.20;;;;;;;;;;5094326;28;20115;-78
2021/12/02 09:46:22;;;;;;;2.80;0.90;;;;;;;;;;5093747;28;20024;-78
2021/12/02 09:48:48;;;;;;;5.40;1.50;;;;;;;;;;5096215;28;20119;-78
2021/12/02 09:51:21;;;;;;;3.63;0.95;;;;;;;;;;5102026;28;20430;-78
2021/12/02 09:56:34;;;;;;;3.25;1.48;;;;;;;;;;5095941;27;20040;-78
2021/12/02 09:59:13;;;;;;;5.53;1.70;;;;;;;;;;5094587;28;20027;-79
2021/12/02 10:04:06;;;;;;;14.88;2.65;;;;;;;;;;5092849;28;20058;-78
2021/12/02 10:06:33;;;;;;;2.42;0.98;;;;;;;;;;5090050;28;20048;-78
2021/12/02 10:09:10;;;;;;;2.40;1.00;;;;;;;;;;5078490;28;20028;-78
2021/12/02 10:11:41;;;;;;;7.45;2.95;;;;;;;;;;5092851;28;20130;-78
2021/12/02 10:14:27;;;;;;;5.90;2.78;;;;;;;;;;5074182;28;20043;-77
2021/12/02 10:17:14;;;;;;;5.40;2.15;;;;;;;;;;5091128;28;20031;-78
2021/12/02 10:20:10;;;;;;;3.42;1.30;;;;;;;;;;5089789;28;20024;-79
2021/12/02 10:22:36;;;;;;;3.30;1.08;;;;;;;;;;5093594;28;20042;-78
2021/12/02 10:25:02;;;;;;;4.53;1.40;;;;;;;;;;5093478;28;20053;-78
2021/12/02 10:27:28;;;;;;;5.45;1.17;;;;;;;;;;5093315;28;20036;-78
2021/12/02 10:29:54;;;;;;;3.30;1.23;;;;;;;;;;5083819;28;20020;-79
2021/12/02 10:32:22;;;;;;;5.03;1.88;;;;;;;;;;5075263;28;20088;-78
2021/12/02 10:34:52;;;;;;;4.55;1.45;;;;;;;;;;5089090;28;20023;-78
2021/12/02 10:37:20;;;;;;;2.72;1.20;;;;;;;;;;5095318;28;20036;-79
2021/12/02 10:39:57;;;;;;;2.92;1.08;;;;;;;;;;5079689;28;20023;-79
2021/12/02 10:42:23;;;;;;;3.30;1.30;;;;;;;;;;5085098;28;20362;-79
2021/12/02 10:44:49;;;;;;;3.60;1.38;;;;;;;;;;5092937;28;20027;-78
2021/12/02 10:47:16;;;;;;;5.07;1.88;;;;;;;;;;5075072;28;20072;-79
2021/12/02 10:49:47;;;;;;;4.95;2.00;;;;;;;;;;5076666;28;20043;-78
2021/12/02 10:52:16;;;;;;;5.95;1.58;;;;;;;;;;5089311;28;20104;-78
2021/12/02 10:54:44;;;;;;;2.97;1.20;;;;;;;;;;5090967;28;20032;-79
2021/12/02 10:57:11;;;;;;;3.65;1.35;;;;;;;;;;5091056;28;20040;-78
2021/12/02 10:59:39;;;;;;;4.00;1.40;;;;;;;;;;5086057;28;20024;-78
2021/12/02 11:02:07;;;;;;;5.30;1.50;;;;;;;;;;5084488;28;20478;-79
2021/12/02 11:04:39;;;;;;;5.68;1.70;;;;;;;;;;5094142;28;20081;-79
2021/12/02 11:07:10;;;;;;;7.32;2.00;;;;;;;;;;5103830;28;20435;-79
2021/12/02 11:09:36;;;;;;;3.50;1.40;;;;;;;;;;5091386;28;20105;-80
2021/12/02 11:12:07;;;;;;;3.30;1.27;;;;;;;;;;5088172;28;20024;-79
2021/12/02 11:14:33;;;;;;;4.80;1.83;;;;;;;;;;5075435;28;20546;-79
2021/12/02 11:17:15;;;;;;;8.25;3.10;;;;;;;;;;5091360;28;20531;-79
2021/12/02 11:19:45;;;;;;;4.15;1.80;;;;;;;;;;5081676;28;20028;-78
2021/12/02 11:22:14;;;;;;;3.50;1.48;;;;;;;;;;5081052;28;20036;-79
2021/12/02 11:24:42;;;;;;;5.43;1.95;;;;;;;;;;5077876;28;20111;-79
2021/12/02 11:30:20;;;;;;;4.43;1.80;;;;;;;;;;5076361;28;20024;-79
2021/12/02 11:35:51;;;;;;;;;;;;;;;;;;5096655;28;20039;-79
2021/12/02 11:38:23;;;;;;;5.45;2.08;;;;;;;;;;5075696;28;19904;-80
2021/12/02 11:40:50;;;;;;;4.65;1.90;;;;;;;;;;5076453;28;20308;-79
2021/12/02 11:43:18;;;;;;;5.65;2.90;;;;;;;;;;5090950;28;20020;-80
2021/12/02 11:45:48;;;;;;;4.30;2.10;;;;;;;;;;5081215;28;20036;-79
2021/12/02 11:48:16;;;;;;;5.47;1.98;;;;;;;;;;5074653;28;20036;-80
2021/12/02 11:50:43;;;;;;;5.13;2.30;;;;;;;;;;5074411;28;20029;-79
2021/12/02 11:53:09;;;;;;;6.32;2.50;;;;;;;;;;5073539;28;20040;-80
2021/12/02 11:55:38;;;;;;;5.70;2.70;;;;;;;;;;5087047;28;20097;-80
2021/12/02 11:58:04;;;;;;;6.20;3.40;;;;;;;;;;5095761;28;20028;-80
2021/12/02 12:00:31;;;;;;;6.85;3.00;;;;;;;;;;5095522;28;20016;-80
2021/12/02 12:03:13;;;;;;;6.18;2.63;;;;;;;;;;5086524;28;20016;-79
2021/12/02 12:05:55;;;;;;;7.22;2.85;;;;;;;;;;5094956;28;20133;-80
2021/12/02 12:08:30;;;;;;;6.18;2.05;;;;;;;;;;5092635;28;20130;-79
2021/12/02 12:10:56;;;;;;;3.92;1.90;;;;;;;;;;5093636;28;20036;-79
2021/12/02 12:13:24;;;;;;;6.53;2.08;;;;;;;;;;5090336;28;20052;-80
2021/12/02 12:15:51;;;;;;;5.05;2.28;;;;;;;;;;5083415;28;20381;-79
2021/12/02 12:18:39;;;;;;;4.05;1.70;;;;;;;;;;5082099;28;20024;-79
2021/12/02 12:21:10;;;;;;;4.57;1.73;;;;;;;;;;5073477;28;20024;-80
2021/12/02 12:23:45;;;;;;;7.10;2.40;;;;;;;;;;5097984;28;20028;-79
2021/12/02 12:26:14;;;;;;;8.85;2.70;;;;;;;;;;5085945;28;20032;-79
2021/12/02 12:28:59;;;;;;;5.00;1.92;;;;;;;;;;5073516;28;20024;-80
2021/12/02 12:31:25;;;;;;;3.92;2.25;;;;;;;;;;5074311;28;20504;-79
2021/12/02 12:33:51;;;;;;;6.85;1.90;;;;;;;;;;5075494;28;20028;-79
2021/12/02 12:36:36;;;;;;;6.38;2.30;;;;;;;;;;5078240;28;20035;-79
2021/12/02 12:39:34;;;;;;;3.80;1.70;;;;;;;;;;5078751;28;20118;-79
2021/12/02 12:42:15;;;;;;;4.15;1.63;;;;;;;;;;5089329;28;20110;-79
2021/12/02 12:44:47;;;;;;;10.48;2.45;;;;;;;;;;5076492;28;20085;-79
2021/12/02 12:47:13;;;;;;;3.97;1.80;;;;;;;;;;5078264;28;20024;-79
2021/12/02 12:49:39;;;;;;;6.75;1.80;;;;;;;;;;5067919;28;20029;-79
2021/12/02 12:52:16;;;;;;;4.32;1.88;;;;;;;;;;5079493;28;20043;-78
2021/12/02 12:54:42;;;;;;;5.28;2.00;;;;;;;;;;5059637;28;20081;-79
2021/12/02 12:57:09;;;;;;;5.10;1.88;;;;;;;;;;5054450;28;20554;-78
2021/12/02 12:59:48;;;;;;;3.97;1.60;;;;;;;;;;5054466;28;20028;-79
2021/12/02 13:02:16;;;;;;;5.18;1.98;;;;;;;;;;5072107;28;20115;-79
2021/12/02 13:04:52;;;;;;;5.15;2.03;;;;;;;;;;5071877;28;20036;-79
2021/12/02 13:07:20;;;;;;;4.35;1.95;;;;;;;;;;5056242;28;20032;-78
2021/12/02 13:09:54;;;;;;;3.70;2.10;;;;;;;;;;5071186;28;20024;-79
2021/12/02 13:12:26;;;;;;;5.55;2.20;;;;;;;;;;5075826;28;20156;-78
2021/12/02 13:14:53;;;;;;;7.80;3.60;;;;;;;;;;5070819;28;20054;-79
2021/12/02 13:17:39;;;;;;;4.88;1.85;;;;;;;;;;5075380;28;20067;-79
2021/12/02 13:20:17;;;;;;;3.63;1.50;;;;;;;;;;5052797;28;20039;-78
2021/12/02 13:22:44;;;;;;;3.90;1.52;;;;;;;;;;5054688;28;20071;-78
2021/12/02 13:25:27;;;;;;;3.40;1.60;;;;;;;;;;5059614;28;20111;-78
2021/12/02 13:27:53;;;;;;;3.70;1.67;;;;;;;;;;5071564;28;20029;-79
2021/12/02 13:30:20;;;;;;;4.55;1.83;;;;;;;;;;5068853;28;20029;-78
2021/12/02 13:32:50;;;;;;;4.13;1.70;;;;;;;;;;5055884;28;20041;-78
2021/12/02 13:35:23;;;;;;;3.63;1.50;;;;;;;;;;5053539;28;20021;-78
2021/12/02 13:38:00;;;;;;;4.07;1.33;;;;;;;;;;5069732;28;20036;-79
2021/12/02 13:40:32;;;;;;;12.73;3.17;;;;;;;;;;5061000;28;20025;-79
2021/12/02 13:43:01;;;;;;;6.30;1.63;;;;;;;;;;5058367;28;20112;-79
2021/12/02 13:54:19;;;;;;;10.15;2.50;;;;;;;;;;5060326;28;19959;-79
2021/12/02 13:56:46;;;;;;;9.77;5.22;;;;;;;;;;5079057;28;20121;-79
2021/12/02 13:59:14;;;;;;;11.50;4.43;;;;;;;;;;5085765;28;20021;-78
2021/12/02 14:01:49;;;;;;;13.70;6.70;;;;;;;;;;5092639;28;20035;-79
2021/12/02 14:04:15;;;;;;;8.68;4.90;;;;;;;;;;5083580;28;22089;-79
2021/12/02 14:06:41;;;;;;;7.45;3.55;;;;;;;;;;5086888;28;20111;-79
2021/12/02 14:09:14;;;;;;;6.80;2.30;;;;;;;;;;5096727;28;20039;-80
2021/12/02 14:11:40;;;;;;;5.65;2.10;;;;;;;;;;5094767;28;20035;-79
2021/12/02 14:14:06;;;;;;;4.80;1.70;;;;;;;;;;5095883;28;20043;-79
2021/12/02 14:16:32;;;;;;;5.40;2.05;;;;;;;;;;5082081;28;20027;-78
2021/12/02 14:19:08;;;;;;;4.10;1.92;;;;;;;;;;5081372;28;20121;-79
2021/12/02 14:21:34;;;;;;;5.35;2.10;;;;;;;;;;5102675;28;20024;-79
2021/12/02 14:24:00;;;;;;;8.10;1.98;;;;;;;;;;5095336;28;20095;-79
2021/12/02 14:26:28;;;;;;;5.28;2.20;;;;;;;;;;5095189;28;20170;-79
2021/12/02 14:28:55;;;;;;;5.57;2.53;;;;;;;;;;5092675;28;20032;-79
2021/12/02 14:31:23;;;;;;;4.20;1.63;;;;;;;;;;5103180;28;20028;-78
2021/12/02 14:33:50;;;;;;;5.35;2.25;;;;;;;;;;5096057;28;20072;-79
2021/12/02 14:36:17;;;;;;;5.40;1.98;;;;;;;;;;5093390;28;20046;-79
2021/12/02 14:39:04;;;;;;;4.20;1.60;;;;;;;;;;5086423;28;20420;-79
2021/12/02 14:41:36;;;;;;;6.15;2.22;;;;;;;;;;5086488;28;20032;-79
2021/12/02 14:44:08;;;;;;;6.07;2.42;;;;;;;;;;5080952;28;20328;-79
2021/12/02 14:46:39;;;;;;;5.75;2.20;;;;;;;;;;5093893;28;20095;-79
2021/12/02 14:58:16;;;;;;;6.88;2.25;;;;;;;;;;5018195;28;20098;-79
2021/12/02 15:00:42;;;;;;;9.20;3.13;;;;;;;;;;5075476;28;20028;-79
2021/12/02 15:03:08;;;;;;;6.70;2.50;;;;;;;;;;5074605;28;20028;-79
2021/12/02 15:05:34;;;;;;;5.05;2.20;;;;;;;;;;5081318;28;20024;-79
2021/12/02 15:08:04;;;;;;;5.10;2.33;;;;;;;;;;5081434;28;20028;-80
2021/12/02 15:10:31;;;;;;;6.05;2.10;;;;;;;;;;5082834;28;20466;-80
2021/12/02 15:13:05;;;;;;;5.63;2.70;;;;;;;;;;5080633;28;20026;-80
2021/12/02 15:15:31;;;;;;;4.78;2.45;;;;;;;;;;5078354;28;20024;-79
2021/12/02 15:17:57;;;;;;;4.57;2.25;;;;;;;;;;5085738;28;20446;-80
2021/12/02 15:20:23;;;;;;;5.80;2.30;;;;;;;;;;5086258;28;20020;-79
2021/12/02 15:22:51;;;;;;;5.55;2.30;;;;;;;;;;5080259;28;20067;-80
2021/12/02 15:25:21;;;;;;;5.32;2.40;;;;;;;;;;5081796;28;20094;-80
2021/12/02 15:27:56;;;;;;;4.95;2.50;;;;;;;;;;5079962;28;20095;-80
2021/12/02 15:30:23;;;;;;;4.28;1.95;;;;;;;;;;5076982;28;20465;-79
2021/12/02 15:32:49;;;;;;;4.47;2.05;;;;;;;;;;5086431;28;20351;-80
2021/12/02 15:35:15;;;;;;;5.45;2.25;;;;;;;;;;5083062;28;20023;-80
2021/12/02 15:37:41;;;;;;;6.20;2.47;;;;;;;;;;5087088;28;20024;-81